sensor_id;sensor_type;location;lat;lon;timestamp;pressure;altitude;pressure_sealevel;temperature;humidity
72721;BME280;60835;50.974;10.322;2023-07-30T00:01:47;96803.56;;;18.08;100.00
72721;BME280;60835;50.974;10.322;2023-07-30T00:04:13;96805.94;;;17.76;100.00
72721;BME280;60835;50.974;10.322;2023-07-30T00:06:40;96787.50;;;17.63;100.00
72721;BME280;60835;50.974;10.322;2023-07-30T00:09:07;96791.56;;;17.54;100.00
72721;BME280;60835;50.974;10.322;2023-07-30T00:11:33;96754.25;;;17.47;100.00
72721;BME280;60835;50.974;10.322;2023-07-30T00:14:00;96751.56;;;17.59;100.00
72721;BME280;60835;50.974;10.322;2023-07-30T00:16:27;96742.91;;;17.69;100.00
72721;BME280;60835;50.974;10.322;2023-07-30T00:18:53;96738.84;;;17.66;100.00
72721;BME280;60835;50.974;10.322;2023-07-30T00:21:20;96739.44;;;17.68;100.00
72721;BME280;60835;50.974;10.322;2023-07-30T00:23:47;96732.47;;;17.67;100.00
72721;BME280;60835;50.974;10.322;2023-07-30T00:26:14;96707.44;;;17.73;100.00
72721;BME280;60835;50.974;10.322;2023-07-30T00:28:41;96704.94;;;17.83;100.00
72721;BME280;60835;50.974;10.322;2023-07-30T00:31:07;96698.28;;;17.86;100.00
72721;BME280;60835;50.974;10.322;2023-07-30T00:33:34;96718.41;;;17.88;100.00
72721;BME280;60835;50.974;10.322;2023-07-30T00:36:00;96711.53;;;17.92;100.00
72721;BME280;60835;50.974;10.322;2023-07-30T00:38:27;96715.81;;;17.93;100.00
72721;BME280;60835;50.974;10.322;2023-07-30T00:40:54;96712.66;;;17.96;100.00
72721;BME280;60835;50.974;10.322;2023-07-30T00:43:22;96724.81;;;18.04;100.00
72721;BME280;60835;50.974;10.322;2023-07-30T00:45:49;96730.72;;;18.06;100.00
72721;BME280;60835;50.974;10.322;2023-07-30T00:48:16;96752.72;;;18.08;100.00
72721;BME280;60835;50.974;10.322;2023-07-30T00:50:42;96749.22;;;18.07;100.00
72721;BME280;60835;50.974;10.322;2023-07-30T00:53:11;96762.44;;;18.14;100.00
72721;BME280;60835;50.974;10.322;2023-07-30T00:55:39;96774.53;;;18.16;100.00
72721;BME280;60835;50.974;10.322;2023-07-30T00:58:07;96797.72;;;18.27;100.00
72721;BME280;60835;50.974;10.322;2023-07-30T01:00:34;96807.31;;;18.23;100.00
72721;BME280;60835;50.974;10.322;2023-07-30T01:03:01;96812.00;;;18.16;100.00
72721;BME280;60835;50.974;10.322;2023-07-30T01:05:28;96798.69;;;18.05;100.00
72721;BME280;60835;50.974;10.322;2023-07-30T01:07:54;96775.81;;;17.97;100.00
72721;BME280;60835;50.974;10.322;2023-07-30T01:10:22;96762.66;;;17.96;100.00
72721;BME280;60835;50.974;10.322;2023-07-30T01:12:50;96763.34;;;18.03;100.00
72721;BME280;60835;50.974;10.322;2023-07-30T01:15:17;96750.06;;;18.08;100.00
72721;BME280;60835;50.974;10.322;2023-07-30T01:17:45;96744.84;;;18.01;100.00
72721;BME280;60835;50.974;10.322;2023-07-30T01:20:12;96738.94;;;17.99;100.00
72721;BME280;60835;50.974;10.322;2023-07-30T01:22:38;96749.38;;;18.01;100.00
72721;BME280;60835;50.974;10.322;2023-07-30T01:25:05;96745.41;;;18.03;100.00
72721;BME280;60835;50.974;10.322;2023-07-30T01:27:37;96762.53;;;18.02;100.00
72721;BME280;60835;50.974;10.322;2023-07-30T01:32:36;96777.28;;;18.05;100.00
72721;BME280;60835;50.974;10.322;2023-07-30T01:35:04;96787.50;;;18.08;100.00
72721;BME280;60835;50.974;10.322;2023-07-30T01:37:34;96799.34;;;18.12;100.00
72721;BME280;60835;50.974;10.322;2023-07-30T01:40:01;96812.50;;;18.13;100.00
72721;BME280;60835;50.974;10.322;2023-07-30T01:42:29;96823.47;;;18.00;100.00
72721;BME280;60835;50.974;10.322;2023-07-30T01:44:56;96833.38;;;18.00;100.00
72721;BME280;60835;50.974;10.322;2023-07-30T01:47:23;96835.38;;;17.93;100.00
72721;BME280;60835;50.974;10.322;2023-07-30T01:49:49;96833.91;;;17.85;100.00
72721;BME280;60835;50.974;10.322;2023-07-30T01:52:16;96836.53;;;17.97;100.00
72721;BME280;60835;50.974;10.322;2023-07-30T01:54:43;96840.69;;;17.76;100.00
72721;BME280;60835;50.974;10.322;2023-07-30T01:57:09;96828.84;;;17.72;100.00
72721;BME280;60835;50.974;10.322;2023-07-30T01:59:36;96814.31;;;17.68;100.00
72721;BME280;60835;50.974;10.322;2023-07-30T02:02:03;96816.41;;;17.66;100.00
72721;BME280;60835;50.974;10.322;2023-07-30T02:04:30;96799.22;;;17.62;100.00
72721;BME280;60835;50.974;10.322;2023-07-30T02:06:57;96788.88;;;17.66;100.00
72721;BME280;60835;50.974;10.322;2023-07-30T02:09:24;96790.66;;;17.77;100.00
72721;BME280;60835;50.974;10.322;2023-07-30T02:11:50;96803.53;;;17.91;100.00
72721;BME280;60835;50.974;10.322;2023-07-30T02:14:18;96834.97;;;17.84;100.00
72721;BME280;60835;50.974;10.322;2023-07-30T02:16:45;96838.88;;;17.93;100.00
72721;BME280;60835;50.974;10.322;2023-07-30T02:19:11;96846.34;;;17.91;100.00
72721;BME280;60835;50.974;10.322;2023-07-30T02:21:38;96864.81;;;17.93;100.00
72721;BME280;60835;50.974;10.322;2023-07-30T02:24:09;96853.78;;;17.89;100.00
72721;BME280;60835;50.974;10.322;2023-07-30T02:26:36;96862.72;;;17.95;100.00
72721;BME280;60835;50.974;10.322;2023-07-30T02:29:03;96873.75;;;17.98;100.00
72721;BME280;60835;50.974;10.322;2023-07-30T02:31:30;96880.34;;;18.07;100.00
72721;BME280;60835;50.974;10.322;2023-07-30T02:33:57;96883.97;;;18.01;100.00
72721;BME280;60835;50.974;10.322;2023-07-30T02:36:24;96874.31;;;18.00;100.00
72721;BME280;60835;50.974;10.322;2023-07-30T02:38:50;96865.28;;;17.90;100.00
72721;BME280;60835;50.974;10.322;2023-07-30T02:41:17;96872.63;;;17.94;100.00
72721;BME280;60835;50.974;10.322;2023-07-30T02:43:44;96876.31;;;17.93;100.00
72721;BME280;60835;50.974;10.322;2023-07-30T02:46:10;96860.09;;;17.83;100.00
72721;BME280;60835;50.974;10.322;2023-07-30T02:48:37;96867.94;;;17.90;100.00
72721;BME280;60835;50.974;10.322;2023-07-30T02:51:03;96860.28;;;17.93;100.00
72721;BME280;60835;50.974;10.322;2023-07-30T02:53:30;96855.09;;;17.87;100.00
72721;BME280;60835;50.974;10.322;2023-07-30T02:55:56;96854.16;;;17.81;100.00
72721;BME280;60835;50.974;10.322;2023-07-30T02:58:23;96855.66;;;17.77;100.00
72721;BME280;60835;50.974;10.322;2023-07-30T03:00:50;96866.94;;;17.79;100.00
72721;BME280;60835;50.974;10.322;2023-07-30T03:03:17;96863.59;;;17.72;100.00
72721;BME280;60835;50.974;10.322;2023-07-30T03:05:44;96853.00;;;17.77;100.00
72721;BME280;60835;50.974;10.322;2023-07-30T03:08:11;96863.59;;;17.72;100.00
72721;BME280;60835;50.974;10.322;2023-07-30T03:10:37;96855.28;;;17.85;100.00
72721;BME280;60835;50.974;10.322;2023-07-30T03:13:04;96876.78;;;17.90;100.00
72721;BME280;60835;50.974;10.322;2023-07-30T03:15:30;96882.63;;;17.87;100.00
72721;BME280;60835;50.974;10.322;2023-07-30T03:17:57;96885.91;;;17.89;100.00
72721;BME280;60835;50.974;10.322;2023-07-30T03:20:24;96896.25;;;17.86;100.00
72721;BME280;60835;50.974;10.322;2023-07-30T03:22:50;96889.59;;;17.88;100.00
72721;BME280;60835;50.974;10.322;2023-07-30T03:25:17;96895.06;;;17.93;100.00
72721;BME280;60835;50.974;10.322;2023-07-30T03:27:44;96891.84;;;17.80;100.00
72721;BME280;60835;50.974;10.322;2023-07-30T03:30:11;96899.63;;;17.81;100.00
72721;BME280;60835;50.974;10.322;2023-07-30T03:32:37;96902.69;;;17.73;100.00
72721;BME280;60835;50.974;10.322;2023-07-30T03:35:04;96898.72;;;17.64;100.00
72721;BME280;60835;50.974;10.322;2023-07-30T03:37:31;96888.50;;;17.61;100.00
72721;BME280;60835;50.974;10.322;2023-07-30T03:39:57;96893.50;;;17.69;100.00
72721;BME280;60835;50.974;10.322;2023-07-30T03:42:24;96882.69;;;17.64;100.00
72721;BME280;60835;50.974;10.322;2023-07-30T03:44:51;96897.34;;;17.73;100.00
72721;BME280;60835;50.974;10.322;2023-07-30T03:47:17;96911.16;;;17.70;100.00
72721;BME280;60835;50.974;10.322;2023-07-30T03:49:44;96902.59;;;17.56;100.00
72721;BME280;60835;50.974;10.322;2023-07-30T03:52:11;96916.41;;;17.65;100.00
72721;BME280;60835;50.974;10.322;2023-07-30T03:54:38;96900.16;;;17.55;100.00
72721;BME280;60835;50.974;10.322;2023-07-30T03:57:04;96915.81;;;17.51;100.00
72721;BME280;60835;50.974;10.322;2023-07-30T03:59:31;96914.56;;;17.54;100.00
72721;BME280;60835;50.974;10.322;2023-07-30T04:01:57;96918.50;;;17.51;100.00
72721;BME280;60835;50.974;10.322;2023-07-30T04:04:24;96914.56;;;17.54;100.00
72721;BME280;60835;50.974;10.322;2023-07-30T04:06:51;96898.97;;;17.51;100.00
72721;BME280;60835;50.974;10.322;2023-07-30T04:09:17;96911.75;;;17.49;100.00
72721;BME280;60835;50.974;10.322;2023-07-30T04:11:44;96910.03;;;17.54;100.00
72721;BME280;60835;50.974;10.322;2023-07-30T04:14:10;96925.69;;;17.51;100.00
72721;BME280;60835;50.974;10.322;2023-07-30T04:16:37;96926.66;;;17.56;100.00
72721;BME280;60835;50.974;10.322;2023-07-30T04:19:04;96935.56;;;17.50;100.00
72721;BME280;60835;50.974;10.322;2023-07-30T04:21:30;96928.75;;;17.54;100.00
72721;BME280;60835;50.974;10.322;2023-07-30T04:23:57;96937.81;;;17.53;100.00
72721;BME280;60835;50.974;10.322;2023-07-30T04:26:24;96941.97;;;17.49;100.00
72721;BME280;60835;50.974;10.322;2023-07-30T04:28:50;96945.94;;;17.47;100.00
72721;BME280;60835;50.974;10.322;2023-07-30T04:31:17;96945.69;;;17.48;100.00
72721;BME280;60835;50.974;10.322;2023-07-30T04:33:43;96929.19;;;17.40;100.00
72721;BME280;60835;50.974;10.322;2023-07-30T04:36:10;96931.88;;;17.40;100.00
72721;BME280;60835;50.974;10.322;2023-07-30T04:38:37;96948.84;;;17.45;100.00
72721;BME280;60835;50.974;10.322;2023-07-30T04:41:03;96946.50;;;17.37;100.00
72721;BME280;60835;50.974;10.322;2023-07-30T04:43:30;96941.97;;;17.38;100.00
72721;BME280;60835;50.974;10.322;2023-07-30T04:45:56;96948.38;;;17.48;100.00
72721;BME280;60835;50.974;10.322;2023-07-30T04:48:23;96946.41;;;17.44;100.00
72721;BME280;60835;50.974;10.322;2023-07-30T04:50:49;96957.91;;;17.56;100.00
72721;BME280;60835;50.974;10.322;2023-07-30T04:53:16;96953.16;;;17.58;100.00
72721;BME280;60835;50.974;10.322;2023-07-30T04:55:47;96972.13;;;17.68;100.00
72721;BME280;60835;50.974;10.322;2023-07-30T04:58:13;96958.03;;;17.84;100.00
72721;BME280;60835;50.974;10.322;2023-07-30T05:00:40;96960.34;;;17.92;100.00
72721;BME280;60835;50.974;10.322;2023-07-30T05:03:06;96981.03;;;17.85;100.00
72721;BME280;60835;50.974;10.322;2023-07-30T05:05:33;96985.91;;;17.88;100.00
72721;BME280;60835;50.974;10.322;2023-07-30T05:07:59;97009.19;;;17.76;100.00
72721;BME280;60835;50.974;10.322;2023-07-30T05:10:26;97019.91;;;17.76;100.00
72721;BME280;60835;50.974;10.322;2023-07-30T05:12:53;97023.63;;;17.75;100.00
72721;BME280;60835;50.974;10.322;2023-07-30T05:15:19;97023.38;;;17.77;100.00
72721;BME280;60835;50.974;10.322;2023-07-30T05:17:46;97042.59;;;17.74;100.00
72721;BME280;60835;50.974;10.322;2023-07-30T05:20:12;97050.81;;;17.72;100.00
72721;BME280;60835;50.974;10.322;2023-07-30T05:22:39;97044.91;;;17.82;100.00
72721;BME280;60835;50.974;10.322;2023-07-30T05:25:06;97047.44;;;17.88;100.00
72721;BME280;60835;50.974;10.322;2023-07-30T05:27:32;97068.16;;;18.04;100.00
72721;BME280;60835;50.974;10.322;2023-07-30T05:29:59;97089.31;;;18.06;100.00
72721;BME280;60835;50.974;10.322;2023-07-30T05:32:25;97111.88;;;18.10;100.00
72721;BME280;60835;50.974;10.322;2023-07-30T05:34:52;97141.31;;;17.98;100.00
72721;BME280;60835;50.974;10.322;2023-07-30T05:37:19;97126.69;;;17.89;100.00
72721;BME280;60835;50.974;10.322;2023-07-30T05:39:46;97157.97;;;18.23;100.00
72721;BME280;60835;50.974;10.322;2023-07-30T05:42:13;97181.59;;;18.27;100.00
72721;BME280;60835;50.974;10.322;2023-07-30T05:44:39;97203.72;;;18.34;100.00
72721;BME280;60835;50.974;10.322;2023-07-30T05:47:06;97221.53;;;18.40;100.00
72721;BME280;60835;50.974;10.322;2023-07-30T05:49:32;97223.66;;;18.61;100.00
72721;BME280;60835;50.974;10.322;2023-07-30T05:51:59;97233.06;;;18.75;100.00
72721;BME280;60835;50.974;10.322;2023-07-30T05:54:26;97245.19;;;18.66;100.00
72721;BME280;60835;50.974;10.322;2023-07-30T05:56:53;97253.78;;;18.91;100.00
72721;BME280;60835;50.974;10.322;2023-07-30T05:59:20;97266.06;;;19.38;100.00
72721;BME280;60835;50.974;10.322;2023-07-30T06:01:49;97327.91;;;19.88;100.00
72721;BME280;60835;50.974;10.322;2023-07-30T06:04:15;97420.41;;;19.69;100.00
72721;BME280;60835;50.974;10.322;2023-07-30T06:06:42;97404.59;;;20.52;100.00
72721;BME280;60835;50.974;10.322;2023-07-30T06:09:08;97455.88;;;20.96;100.00
72721;BME280;60835;50.974;10.322;2023-07-30T06:11:35;97516.63;;;20.80;100.00
72721;BME280;60835;50.974;10.322;2023-07-30T06:14:02;97538.84;;;20.47;100.00
72721;BME280;60835;50.974;10.322;2023-07-30T06:16:29;97564.41;;;20.50;100.00
72721;BME280;60835;50.974;10.322;2023-07-30T06:18:56;97609.22;;;21.12;100.00
72721;BME280;60835;50.974;10.322;2023-07-30T06:21:22;97632.72;;;20.65;100.00
72721;BME280;60835;50.974;10.322;2023-07-30T06:23:49;97663.22;;;21.67;100.00
72721;BME280;60835;50.974;10.322;2023-07-30T06:26:15;97717.31;;;21.82;100.00
72721;BME280;60835;50.974;10.322;2023-07-30T06:28:42;97712.91;;;21.48;100.00
72721;BME280;60835;50.974;10.322;2023-07-30T06:31:08;97690.59;;;22.09;100.00
72721;BME280;60835;50.974;10.322;2023-07-30T06:33:35;97769.06;;;22.63;100.00
72721;BME280;60835;50.974;10.322;2023-07-30T06:36:02;97802.19;;;22.96;100.00
72721;BME280;60835;50.974;10.322;2023-07-30T06:38:29;97803.13;;;22.52;100.00
72721;BME280;60835;50.974;10.322;2023-07-30T06:40:55;97800.41;;;21.62;100.00
72721;BME280;60835;50.974;10.322;2023-07-30T06:43:24;97774.59;;;22.89;100.00
72721;BME280;60835;50.974;10.322;2023-07-30T06:45:50;97816.84;;;22.06;100.00
72721;BME280;60835;50.974;10.322;2023-07-30T06:48:17;97792.03;;;23.03;100.00
72721;BME280;60835;50.974;10.322;2023-07-30T06:50:43;97796.59;;;22.81;100.00
72721;BME280;60835;50.974;10.322;2023-07-30T06:53:10;97787.22;;;23.06;100.00
72721;BME280;60835;50.974;10.322;2023-07-30T06:55:36;97865.09;;;23.19;100.00
72721;BME280;60835;50.974;10.322;2023-07-30T06:58:03;97855.63;;;23.76;100.00
72721;BME280;60835;50.974;10.322;2023-07-30T07:00:30;97860.44;;;24.17;100.00
72721;BME280;60835;50.974;10.322;2023-07-30T07:02:56;97873.56;;;23.27;100.00
72721;BME280;60835;50.974;10.322;2023-07-30T07:05:23;97820.78;;;23.53;100.00
72721;BME280;60835;50.974;10.322;2023-07-30T07:07:50;97873.75;;;24.02;100.00
72721;BME280;60835;50.974;10.322;2023-07-30T07:10:17;97900.28;;;24.54;100.00
72721;BME280;60835;50.974;10.322;2023-07-30T07:12:43;97905.69;;;24.54;100.00
72721;BME280;60835;50.974;10.322;2023-07-30T07:15:10;97887.81;;;24.79;100.00
72721;BME280;60835;50.974;10.322;2023-07-30T07:17:37;97930.53;;;24.24;100.00
72721;BME280;60835;50.974;10.322;2023-07-30T07:20:05;97898.72;;;24.09;100.00
72721;BME280;60835;50.974;10.322;2023-07-30T07:22:34;97948.06;;;24.21;100.00
72721;BME280;60835;50.974;10.322;2023-07-30T07:25:00;97999.22;;;23.35;100.00
72721;BME280;60835;50.974;10.322;2023-07-30T07:27:27;98000.09;;;24.34;100.00
72721;BME280;60835;50.974;10.322;2023-07-30T07:29:53;98155.41;;;24.81;100.00
72721;BME280;60835;50.974;10.322;2023-07-30T07:32:20;98402.56;;;23.74;100.00
72721;BME280;60835;50.974;10.322;2023-07-30T07:34:50;98377.25;;;24.64;100.00
72721;BME280;60835;50.974;10.322;2023-07-30T07:37:17;98420.09;;;24.11;100.00
72721;BME280;60835;50.974;10.322;2023-07-30T07:39:45;98378.19;;;23.34;100.00
72721;BME280;60835;50.974;10.322;2023-07-30T07:42:12;98376.38;;;23.74;100.00
72721;BME280;60835;50.974;10.322;2023-07-30T07:44:38;98421.16;;;24.83;100.00
72721;BME280;60835;50.974;10.322;2023-07-30T07:47:05;98421.19;;;23.87;100.00
72721;BME280;60835;50.974;10.322;2023-07-30T07:49:32;98401.47;;;23.86;100.00
72721;BME280;60835;50.974;10.322;2023-07-30T07:51:58;98421.41;;;24.98;100.00
72721;BME280;60835;50.974;10.322;2023-07-30T07:54:25;98444.97;;;24.69;100.00
72721;BME280;60835;50.974;10.322;2023-07-30T07:56:51;98476.09;;;25.50;100.00
72721;BME280;60835;50.974;10.322;2023-07-30T07:59:18;98499.28;;;26.18;100.00
72721;BME280;60835;50.974;10.322;2023-07-30T08:01:44;98480.19;;;24.58;100.00
72721;BME280;60835;50.974;10.322;2023-07-30T08:04:11;98455.41;;;24.49;100.00
72721;BME280;60835;50.974;10.322;2023-07-30T08:06:38;98438.53;;;24.02;100.00
72721;BME280;60835;50.974;10.322;2023-07-30T08:09:04;98368.22;;;23.23;100.00
72721;BME280;60835;50.974;10.322;2023-07-30T08:11:31;98355.72;;;22.29;100.00
72721;BME280;60835;50.974;10.322;2023-07-30T08:13:58;98348.19;;;23.19;100.00
72721;BME280;60835;50.974;10.322;2023-07-30T08:16:24;98364.34;;;23.30;100.00
72721;BME280;60835;50.974;10.322;2023-07-30T08:18:52;98356.16;;;22.79;100.00
72721;BME280;60835;50.974;10.322;2023-07-30T08:21:18;98344.91;;;22.93;100.00
72721;BME280;60835;50.974;10.322;2023-07-30T08:23:46;98352.28;;;23.21;100.00
72721;BME280;60835;50.974;10.322;2023-07-30T08:26:13;98352.31;;;22.86;100.00
72721;BME280;60835;50.974;10.322;2023-07-30T08:28:40;98357.22;;;23.01;100.00
72721;BME280;60835;50.974;10.322;2023-07-30T08:31:06;98338.13;;;23.54;100.00
72721;BME280;60835;50.974;10.322;2023-07-30T08:33:33;98354.56;;;23.64;100.00
72721;BME280;60835;50.974;10.322;2023-07-30T08:36:00;98328.59;;;22.65;100.00
72721;BME280;60835;50.974;10.322;2023-07-30T08:38:28;98337.69;;;23.34;100.00
72721;BME280;60835;50.974;10.322;2023-07-30T08:40:54;98340.09;;;22.95;100.00
72721;BME280;60835;50.974;10.322;2023-07-30T08:43:21;98318.28;;;22.85;100.00
72721;BME280;60835;50.974;10.322;2023-07-30T08:45:48;98292.81;;;21.94;100.00
72721;BME280;60835;50.974;10.322;2023-07-30T08:48:14;98201.56;;;21.85;100.00
72721;BME280;60835;50.974;10.322;2023-07-30T08:50:41;98143.50;;;22.36;100.00
72721;BME280;60835;50.974;10.322;2023-07-30T08:53:09;98167.84;;;23.44;100.00
72721;BME280;60835;50.974;10.322;2023-07-30T08:55:37;98274.69;;;23.68;100.00
72721;BME280;60835;50.974;10.322;2023-07-30T08:58:05;98250.53;;;23.61;100.00
72721;BME280;60835;50.974;10.322;2023-07-30T09:00:34;98235.53;;;23.14;100.00
72721;BME280;60835;50.974;10.322;2023-07-30T09:03:04;98236.81;;;23.96;100.00
72721;BME280;60835;50.974;10.322;2023-07-30T09:05:31;98377.66;;;25.44;100.00
72721;BME280;60835;50.974;10.322;2023-07-30T09:07:58;98375.75;;;24.73;100.00
72721;BME280;60835;50.974;10.322;2023-07-30T09:10:27;98417.75;;;24.76;100.00
72721;BME280;60835;50.974;10.322;2023-07-30T09:12:57;98404.38;;;24.53;100.00
72721;BME280;60835;50.974;10.322;2023-07-30T09:15:37;98433.75;;;26.52;100.00
72721;BME280;60835;50.974;10.322;2023-07-30T09:18:05;98464.22;;;27.18;100.00
72721;BME280;60835;50.974;10.322;2023-07-30T09:20:39;98468.22;;;27.10;100.00
72721;BME280;60835;50.974;10.322;2023-07-30T09:23:07;98490.22;;;27.14;100.00
72721;BME280;60835;50.974;10.322;2023-07-30T09:25:35;98469.22;;;25.81;100.00
72721;BME280;60835;50.974;10.322;2023-07-30T09:28:02;98498.69;;;26.86;100.00
72721;BME280;60835;50.974;10.322;2023-07-30T09:30:29;98491.69;;;26.41;100.00
72721;BME280;60835;50.974;10.322;2023-07-30T09:32:57;98495.28;;;27.64;100.00
72721;BME280;60835;50.974;10.322;2023-07-30T09:35:25;98501.91;;;27.14;100.00
72721;BME280;60835;50.974;10.322;2023-07-30T09:38:00;98484.72;;;25.47;100.00
72721;BME280;60835;50.974;10.322;2023-07-30T09:40:33;98445.19;;;24.51;100.00
72721;BME280;60835;50.974;10.322;2023-07-30T09:43:02;98411.59;;;24.64;100.00
72721;BME280;60835;50.974;10.322;2023-07-30T09:45:33;98413.28;;;24.08;100.00
72721;BME280;60835;50.974;10.322;2023-07-30T09:48:02;98387.09;;;23.97;100.00
72721;BME280;60835;50.974;10.322;2023-07-30T09:50:29;98390.34;;;24.39;100.00
72721;BME280;60835;50.974;10.322;2023-07-30T09:52:58;98387.41;;;24.41;100.00
72721;BME280;60835;50.974;10.322;2023-07-30T09:55:27;98435.22;;;25.35;100.00
72721;BME280;60835;50.974;10.322;2023-07-30T09:57:54;98425.84;;;24.43;100.00
72721;BME280;60835;50.974;10.322;2023-07-30T10:00:21;98391.63;;;24.37;100.00
72721;BME280;60835;50.974;10.322;2023-07-30T10:02:49;98355.69;;;23.80;100.00
72721;BME280;60835;50.974;10.322;2023-07-30T10:05:18;98371.72;;;23.58;100.00
72721;BME280;60835;50.974;10.322;2023-07-30T10:07:59;98339.25;;;23.30;100.00
72721;BME280;60835;50.974;10.322;2023-07-30T10:10:28;98354.88;;;23.04;100.00
72721;BME280;60835;50.974;10.322;2023-07-30T10:12:58;98364.47;;;23.47;100.00
72721;BME280;60835;50.974;10.322;2023-07-30T10:15:25;98358.22;;;23.58;100.00
72721;BME280;60835;50.974;10.322;2023-07-30T10:17:52;98348.63;;;23.50;100.00
72721;BME280;60835;50.974;10.322;2023-07-30T10:20:26;98280.97;;;23.06;100.00
72721;BME280;60835;50.974;10.322;2023-07-30T10:22:59;98253.78;;;22.49;100.00
72721;BME280;60835;50.974;10.322;2023-07-30T10:25:42;98245.59;;;22.56;100.00
72721;BME280;60835;50.974;10.322;2023-07-30T10:30:57;98237.34;;;22.62;100.00
72721;BME280;60835;50.974;10.322;2023-07-30T10:33:43;98242.19;;;22.72;100.00
72721;BME280;60835;50.974;10.322;2023-07-30T10:36:10;98261.31;;;22.70;100.00
72721;BME280;60835;50.974;10.322;2023-07-30T10:38:37;98261.84;;;22.95;100.00
72721;BME280;60835;50.974;10.322;2023-07-30T10:41:08;98259.50;;;22.18;100.00
72721;BME280;60835;50.974;10.322;2023-07-30T10:43:36;98274.16;;;22.33;100.00
72721;BME280;60835;50.974;10.322;2023-07-30T10:46:05;98261.06;;;22.37;100.00
72721;BME280;60835;50.974;10.322;2023-07-30T10:48:39;98257.06;;;22.51;100.00
72721;BME280;60835;50.974;10.322;2023-07-30T10:51:08;98251.78;;;23.31;100.00
72721;BME280;60835;50.974;10.322;2023-07-30T10:53:35;98255.91;;;22.70;100.00
72721;BME280;60835;50.974;10.322;2023-07-30T10:56:09;98266.34;;;22.90;100.00
72721;BME280;60835;50.974;10.322;2023-07-30T10:58:37;98250.19;;;23.18;100.00
72721;BME280;60835;50.974;10.322;2023-07-30T11:01:05;98269.47;;;22.98;100.00
72721;BME280;60835;50.974;10.322;2023-07-30T11:03:33;98264.09;;;23.50;100.00
72721;BME280;60835;50.974;10.322;2023-07-30T11:06:01;98267.06;;;23.37;100.00
72721;BME280;60835;50.974;10.322;2023-07-30T11:08:40;98291.97;;;23.16;100.00
72721;BME280;60835;50.974;10.322;2023-07-30T11:11:08;98304.19;;;23.86;100.00
72721;BME280;60835;50.974;10.322;2023-07-30T11:13:46;98311.63;;;24.07;100.00
72721;BME280;60835;50.974;10.322;2023-07-30T11:16:14;98320.25;;;24.21;100.00
72721;BME280;60835;50.974;10.322;2023-07-30T11:18:42;98326.75;;;24.53;100.00
72721;BME280;60835;50.974;10.322;2023-07-30T11:21:13;98397.25;;;25.13;100.00
72721;BME280;60835;50.974;10.322;2023-07-30T11:23:42;98402.84;;;25.83;100.00
72721;BME280;60835;50.974;10.322;2023-07-30T11:26:16;98416.84;;;25.75;100.00
72721;BME280;60835;50.974;10.322;2023-07-30T11:28:44;98448.31;;;26.46;100.00
72721;BME280;60835;50.974;10.322;2023-07-30T11:31:18;98446.53;;;26.30;100.00
72721;BME280;60835;50.974;10.322;2023-07-30T11:33:49;98391.19;;;24.56;100.00
72721;BME280;60835;50.974;10.322;2023-07-30T11:36:22;98386.44;;;25.13;100.00
72721;BME280;60835;50.974;10.322;2023-07-30T11:38:49;98379.28;;;25.07;100.00
72721;BME280;60835;50.974;10.322;2023-07-30T11:41:17;98345.19;;;23.55;100.00
72721;BME280;60835;50.974;10.322;2023-07-30T11:43:44;98325.72;;;24.09;100.00
72721;BME280;60835;50.974;10.322;2023-07-30T11:46:18;98319.59;;;24.14;100.00
72721;BME280;60835;50.974;10.322;2023-07-30T11:48:47;98299.09;;;23.45;100.00
72721;BME280;60835;50.974;10.322;2023-07-30T11:53:53;97755.31;;;22.64;100.00
72721;BME280;60835;50.974;10.322;2023-07-30T11:56:21;97685.00;;;22.49;100.00
72721;BME280;60835;50.974;10.322;2023-07-30T11:58:49;97632.81;;;22.38;100.00
72721;BME280;60835;50.974;10.322;2023-07-30T12:01:17;97721.53;;;21.62;100.00
72721;BME280;60835;50.974;10.322;2023-07-30T12:03:44;97594.84;;;21.68;100.00
72721;BME280;60835;50.974;10.322;2023-07-30T12:06:12;97577.53;;;21.14;100.00
72721;BME280;60835;50.974;10.322;2023-07-30T12:08:39;97576.31;;;21.55;100.00
72721;BME280;60835;50.974;10.322;2023-07-30T12:11:08;97598.75;;;21.44;100.00
72721;BME280;60835;50.974;10.322;2023-07-30T12:13:43;97522.50;;;21.22;100.00
72721;BME280;60835;50.974;10.322;2023-07-30T12:16:13;97451.78;;;20.77;100.00
72721;BME280;60835;50.974;10.322;2023-07-30T12:18:40;97374.44;;;18.50;100.00
72721;BME280;60835;50.974;10.322;2023-07-30T12:21:07;97298.63;;;17.48;100.00
72721;BME280;60835;50.974;10.322;2023-07-30T12:23:34;97214.19;;;17.41;100.00
72721;BME280;60835;50.974;10.322;2023-07-30T12:26:02;97153.66;;;17.17;100.00
72721;BME280;60835;50.974;10.322;2023-07-30T12:28:34;97095.31;;;17.14;100.00
72721;BME280;60835;50.974;10.322;2023-07-30T12:31:01;97039.09;;;17.09;100.00
72721;BME280;60835;50.974;10.322;2023-07-30T12:33:27;97002.88;;;17.36;100.00
72721;BME280;60835;50.974;10.322;2023-07-30T12:35:54;96968.34;;;17.34;100.00
72721;BME280;60835;50.974;10.322;2023-07-30T12:38:21;96973.13;;;17.44;100.00
72721;BME280;60835;50.974;10.322;2023-07-30T12:40:47;96963.59;;;17.48;100.00
72721;BME280;60835;50.974;10.322;2023-07-30T12:43:14;96955.69;;;17.30;100.00
72721;BME280;60835;50.974;10.322;2023-07-30T12:45:40;96955.47;;;17.20;100.00
72721;BME280;60835;50.974;10.322;2023-07-30T12:48:07;96963.00;;;17.11;100.00
72721;BME280;60835;50.974;10.322;2023-07-30T12:50:34;96964.94;;;16.92;100.00